Disclaimer

Please do not use the information listed here in-flight or in-navigation, as they are not provided to us by the airports but are provided by volunteers, so they might be outdated.

Search


Regions


Airport information page

Radio informations:
TIMISOARA TWR - 120.1 MHz
TIMISOARA GND - 121.6 MHz
TIMISOARA APP - 120.1 MHz

Airport informations:
Latitude: 45° 48' 35.50" N
Longitude: 021° 20' 16.30" E
Elevation: 348 feet - 106 meters
Operating hours: N/A
Operating agency: Military-civil joint use airport
Timezone: UTC+2(+3DT)
Fuel: N/A

Runway information:
11/29 - 11483 x 148 feet< - >3500 x 45 meters

Recent METARs:
LRTR 210230Z 10006KT 7000 -DZ SCT012 OVC030 05/05 Q1013 R11/290095 NOSIG
LRTR 210300Z AUTO 11008KT 9999 OVC030/// 05/05 Q1013 REUP NOSIG
LRTR 210330Z 11008KT 9999 FEW015 OVC029 05/05 Q1014 R11/290095 NOSIG

Airport on the map: